Time;durP1;ratioP1;P1;durP2;ratioP2;P2;SDS_P1;SDS_P2;PMS_P1;PMS_P2;Temp;Humidity;BMP_temperature;BMP_pressure;BME280_temperature;BME280_humidity;BME280_pressure;Samples;Min_cycle;Max_cycle;Signal;HPM_P1;HPM_P2
2023/01/06 11:16:35;;;;;;;9.30;3.80;;;19.80;57.50;;;;;;5067838;28;20373;-75
2023/01/06 11:19:19;;;;;;;14.77;4.95;;;19.90;57.90;;;;;;5051226;28;20392;-77
2023/01/06 11:21:45;;;;;;;11.77;5.45;;;19.80;56.40;;;;;;5068522;28;20035;-81
2023/01/06 11:24:23;;;;;;;27.80;11.57;;;19.60;55.20;;;;;;5067626;28;20056;-81
2023/01/06 11:26:55;;;;;;;23.98;14.15;;;19.50;54.50;;;;;;5069284;22;20072;-76
2023/01/06 11:29:29;;;;;;;25.60;13.05;;;19.40;54.60;;;;;;5043690;28;20026;-78
2023/01/06 11:32:01;;;;;;;23.15;13.50;;;19.50;55.20;;;;;;5045054;28;20033;-77
2023/01/06 11:34:30;;;;;;;19.67;11.65;;;19.50;55.40;;;;;;5046615;28;20495;-76
2023/01/06 11:37:00;;;;;;;27.13;11.85;;;19.60;55.70;;;;;;5045509;28;20520;-82
2023/01/06 11:39:33;;;;;;;33.75;11.68;;;19.60;55.80;;;;;;5046613;28;20029;-76
2023/01/06 11:42:13;;;;;;;28.00;10.90;;;19.70;55.80;;;;;;5046602;28;20024;-76
2023/01/06 11:44:40;;;;;;;;;;;19.70;56.00;;;;;;5045958;28;20473;-82
2023/01/06 11:47:35;;;;;;;26.10;15.45;;;19.70;55.80;;;;;;5012538;28;19915;-81
2023/01/06 11:50:01;;;;;;;30.33;22.35;;;19.60;54.30;;;;;;5032104;28;20502;-78
2023/01/06 11:52:32;;;;;;;28.98;17.98;;;19.60;54.50;;;;;;5042417;28;20119;-78
2023/01/06 11:55:19;;;;;;;27.75;18.63;;;19.50;54.60;;;;;;5042973;28;20508;-77
2023/01/06 11:57:53;;;;;;;33.38;18.35;;;19.60;54.70;;;;;;5043670;28;20021;-77
2023/01/06 12:00:50;;;;;;;27.77;17.35;;;19.60;55.00;;;;;;5044826;28;20029;-89
2023/01/06 12:03:43;;;;;;;38.80;26.52;;;19.60;55.20;;;;;;5047485;28;20366;-87
2023/01/06 12:06:39;;;;;;;45.60;28.33;;;19.60;54.40;;;;;;5012277;28;20041;-83
2023/01/06 12:09:31;;;;;;;51.78;30.65;;;19.50;54.70;;;;;;5042940;28;20040;-75
2023/01/06 12:12:02;;;;;;;52.08;35.50;;;19.50;55.20;;;;;;5041199;28;20056;-76
2023/01/06 12:14:32;;;;;;;45.50;31.05;;;19.60;55.00;;;;;;5042035;28;20196;-79
2023/01/06 12:17:10;;;;;;;43.13;29.50;;;19.60;55.60;;;;;;5041449;28;20029;-76
2023/01/06 12:19:55;;;;;;;45.67;28.90;;;19.70;56.00;;;;;;5043988;28;20036;-79
2023/01/06 12:22:33;;;;;;;40.67;27.88;;;19.80;55.70;;;;;;5044464;28;20075;-77
2023/01/06 12:25:00;;;;;;;37.63;26.70;;;19.90;57.70;;;;;;5043969;28;20397;-77
2023/01/06 12:27:44;;;;;;;39.00;27.90;;;19.90;56.80;;;;;;5033442;28;20132;-76
2023/01/06 12:30:35;;;;;;;42.28;27.60;;;19.90;56.20;;;;;;5031744;28;20409;-76
2023/01/06 12:33:22;;;;;;;38.28;27.35;;;19.90;57.20;;;;;;5031212;28;20033;-76
2023/01/06 12:35:52;;;;;;;40.85;26.75;;;20.00;57.30;;;;;;5033385;28;20056;-89
2023/01/06 12:38:28;;;;;;;34.35;22.05;;;20.00;57.20;;;;;;5034064;28;20037;-87
2023/01/06 12:41:04;;;;;;;20.40;12.18;;;19.90;56.00;;;;;;5033210;28;20044;-85
2023/01/06 12:43:33;;;;;;;22.77;9.65;;;19.80;55.00;;;;;;5034227;28;20033;-91
2023/01/06 12:46:12;;;;;;;18.83;8.82;;;19.60;55.10;;;;;;5033808;28;20037;-83
2023/01/06 12:48:55;;;;;;;18.83;11.63;;;19.50;54.70;;;;;;5032919;28;20021;-87
2023/01/06 12:51:45;;;;;;;21.65;13.68;;;19.40;54.60;;;;;;5000844;28;20822;-87
2023/01/06 12:54:27;;;;;;;23.25;14.25;;;19.30;55.10;;;;;;5031624;28;20105;-79
2023/01/06 12:57:03;;;;;;;21.65;13.73;;;19.40;55.20;;;;;;5032381;28;20035;-83
2023/01/06 12:59:59;;;;;;;25.92;14.05;;;19.50;55.80;;;;;;5034338;28;20033;-81
2023/01/06 13:02:53;;;;;;;22.58;12.60;;;19.50;55.80;;;;;;5034289;28;20392;-77
2023/01/06 13:05:31;;;;;;;29.13;12.40;;;19.60;55.80;;;;;;5033574;28;20029;-76
2023/01/06 13:08:22;;;;;;;24.58;12.65;;;19.70;56.10;;;;;;5030125;28;20539;-78
2023/01/06 13:11:12;;;;;;;20.42;11.77;;;19.70;55.50;;;;;;5031599;28;20029;-78
2023/01/06 13:13:59;;;;;;;16.45;10.77;;;19.70;55.30;;;;;;5030233;28;20026;-78
2023/01/06 13:16:46;;;;;;;21.23;11.88;;;19.80;55.30;;;;;;5031675;28;20037;-78
2023/01/06 13:19:31;;;;;;;19.83;11.68;;;19.80;55.40;;;;;;5031798;28;20108;-78
2023/01/06 13:21:59;;;;;;;21.25;11.85;;;19.80;55.50;;;;;;5031346;28;20432;-78
2023/01/06 13:24:49;;;;;;;21.52;11.27;;;19.80;55.60;;;;;;4997473;28;20536;-77
2023/01/06 13:27:39;;;;;;;23.27;11.05;;;19.80;55.60;;;;;;5030103;28;20036;-76
2023/01/06 13:30:23;;;;;;;23.58;11.68;;;19.70;55.60;;;;;;5031185;28;20032;-76
2023/01/06 13:33:16;;;;;;;19.63;10.73;;;19.80;55.80;;;;;;5030267;28;20025;-77
2023/01/06 13:36:07;;;;;;;19.70;10.80;;;19.80;55.80;;;;;;5029898;28;20136;-77
2023/01/06 13:38:56;;;;;;;17.50;10.73;;;19.80;55.80;;;;;;5029674;28;20096;-77
2023/01/06 13:41:33;;;;;;;21.00;10.98;;;19.80;56.00;;;;;;5030585;28;20057;-77
2023/01/06 13:44:00;;;;;;;21.10;11.00;;;19.80;56.00;;;;;;5031013;28;20068;-76
2023/01/06 13:46:27;;;;;;;17.02;10.50;;;19.80;56.00;;;;;;5030992;28;20439;-77
2023/01/06 13:49:04;;;;;;;16.73;10.07;;;19.80;56.10;;;;;;5030917;28;20369;-77
2023/01/06 13:51:39;;;;;;;19.00;10.20;;;19.80;56.10;;;;;;5030801;28;20124;-77
2023/01/06 13:54:05;;;;;;;22.75;9.95;;;19.80;56.10;;;;;;5029981;28;20057;-78
2023/01/06 13:56:34;;;;;;;19.45;9.98;;;19.80;56.20;;;;;;5029502;28;20088;-78
2023/01/06 13:59:21;;;;;;;16.10;9.60;;;19.80;56.10;;;;;;5030607;28;20036;-79
2023/01/06 14:01:47;;;;;;;27.75;10.05;;;19.80;56.20;;;;;;5029450;28;20527;-79
2023/01/06 14:04:31;;;;;;;22.42;10.07;;;19.80;56.30;;;;;;5029376;28;20032;-78
2023/01/06 14:06:57;;;;;;;22.50;10.27;;;19.80;56.30;;;;;;5030594;28;20397;-78
2023/01/06 14:09:24;;;;;;;17.60;10.20;;;19.80;56.30;;;;;;5030401;28;20036;-79
2023/01/06 14:11:50;;;;;;;22.33;9.98;;;19.90;56.40;;;;;;5028984;28;20489;-78
2023/01/06 14:14:26;;;;;;;16.95;9.23;;;19.90;56.30;;;;;;5029074;28;20025;-78
2023/01/06 14:16:53;;;;;;;20.77;10.15;;;19.90;56.40;;;;;;5030394;28;20029;-78
2023/01/06 14:19:37;;;;;;;19.70;9.82;;;19.90;56.50;;;;;;5030464;28;20108;-78
2023/01/06 14:22:21;;;;;;;21.60;10.07;;;19.90;56.50;;;;;;5028952;28;20036;-78
2023/01/06 14:25:04;;;;;;;18.15;9.30;;;19.80;56.40;;;;;;5029054;28;20037;-78
2023/01/06 14:27:44;;;;;;;19.55;9.73;;;19.90;56.50;;;;;;5030358;28;20100;-78
2023/01/06 14:30:24;;;;;;;16.63;8.93;;;19.80;56.50;;;;;;5028716;28;20038;-77
2023/01/06 14:32:49;;;;;;;16.48;9.65;;;19.90;56.60;;;;;;5030392;28;20045;-78
2023/01/06 14:35:25;;;;;;;15.55;8.98;;;19.90;56.60;;;;;;5012281;28;20164;-78
2023/01/06 14:38:00;;;;;;;16.65;9.23;;;19.90;56.70;;;;;;5030767;28;20080;-78
2023/01/06 14:40:30;;;;;;;16.58;9.13;;;19.80;56.60;;;;;;5029072;28;20442;-78
2023/01/06 14:42:57;;;;;;;;;;;19.90;56.70;;;;;;5031038;28;20032;-79
2023/01/06 14:45:29;;;;;;;15.15;8.88;;;19.80;56.70;;;;;;5030076;28;20493;-79
2023/01/06 14:48:06;;;;;;;15.70;9.18;;;19.90;56.70;;;;;;5013099;28;20156;-79
2023/01/06 14:50:38;;;;;;;14.57;8.85;;;19.90;56.70;;;;;;5030033;28;20119;-79
2023/01/06 14:53:20;;;;;;;17.17;8.75;;;19.90;56.70;;;;;;5029501;28;20027;-78
2023/01/06 14:55:48;;;;;;;17.60;9.68;;;19.90;56.80;;;;;;5030565;28;20037;-78
2023/01/06 14:58:32;;;;;;;16.50;8.77;;;19.90;56.80;;;;;;5030464;28;20099;-78
2023/01/06 15:00:58;;;;;;;14.27;8.20;;;19.90;56.80;;;;;;5028404;28;20370;-78
2023/01/06 15:03:26;;;;;;;15.55;8.43;;;19.90;56.80;;;;;;5030364;28;20033;-79
2023/01/06 15:06:22;;;;;;;17.02;9.10;;;19.90;56.80;;;;;;5028630;28;20040;-79
2023/01/06 15:08:48;;;;;;;14.02;8.43;;;19.90;56.90;;;;;;5015096;28;20396;-78
2023/01/06 15:11:28;;;;;;;15.00;8.52;;;19.90;57.00;;;;;;5029494;28;20053;-78
2023/01/06 15:13:54;;;;;;;15.32;8.73;;;19.90;57.00;;;;;;5029832;28;20036;-79
2023/01/06 15:16:38;;;;;;;15.13;9.15;;;19.90;57.00;;;;;;5029749;28;20049;-78
2023/01/06 15:19:13;;;;;;;17.70;8.32;;;19.90;57.00;;;;;;5028646;28;20033;-78
2023/01/06 15:21:40;;;;;;;14.75;8.50;;;19.90;57.20;;;;;;5029679;28;20041;-79
2023/01/06 15:24:15;;;;;;;15.43;8.88;;;19.90;57.20;;;;;;5029867;28;20017;-79
2023/01/06 15:26:41;;;;;;;12.32;8.02;;;19.80;57.20;;;;;;5029571;28;20060;-78
2023/01/06 15:29:14;;;;;;;17.13;9.02;;;19.90;57.40;;;;;;5029645;28;20030;-78
2023/01/06 15:31:41;;;;;;;18.17;8.80;;;19.90;57.10;;;;;;5025280;28;20037;-79
2023/01/06 15:34:21;;;;;;;19.23;9.10;;;19.90;57.20;;;;;;5020478;28;20033;-78
2023/01/06 15:36:50;;;;;;;18.92;8.00;;;20.00;57.20;;;;;;5027333;28;20037;-78
2023/01/06 15:39:25;;;;;;;12.83;7.27;;;20.00;57.20;;;;;;5028102;28;20112;-78
2023/01/06 15:41:52;;;;;;;23.98;8.05;;;20.00;57.30;;;;;;5026944;28;20041;-78
2023/01/06 15:44:32;;;;;;;15.63;8.25;;;20.00;57.50;;;;;;5029260;28;20402;-77
2023/01/06 15:47:10;;;;;;;17.70;8.88;;;20.00;57.30;;;;;;5028025;28;20034;-77
2023/01/06 15:49:49;;;;;;;18.92;8.25;;;20.00;57.30;;;;;;5027249;28;20477;-76
2023/01/06 15:52:26;;;;;;;23.70;8.73;;;20.00;57.30;;;;;;5028865;28;20044;-77
2023/01/06 15:54:55;;;;;;;18.02;8.75;;;20.00;57.30;;;;;;5028951;28;20068;-77
2023/01/06 15:57:22;;;;;;;15.80;8.13;;;20.00;57.30;;;;;;5029223;28;20033;-77
2023/01/06 15:59:58;;;;;;;16.20;7.75;;;20.00;57.30;;;;;;5028846;28;20052;-77
2023/01/06 16:02:28;;;;;;;13.57;8.20;;;20.00;57.30;;;;;;5029912;28;20029;-77
2023/01/06 16:04:54;;;;;;;13.98;7.65;;;20.00;57.40;;;;;;5014852;28;20124;-77
2023/01/06 16:07:40;;;;;;;14.85;8.23;;;20.00;57.40;;;;;;5032639;28;20083;-77
2023/01/06 16:10:32;;;;;;;14.05;7.85;;;19.90;57.50;;;;;;5031060;28;20504;-77
2023/01/06 16:13:16;;;;;;;14.48;7.88;;;19.90;57.40;;;;;;5031161;28;20025;-76
2023/01/06 16:15:50;;;;;;;16.15;8.48;;;20.00;57.50;;;;;;5031750;28;20034;-77
2023/01/06 16:18:23;;;;;;;14.68;7.85;;;20.00;57.50;;;;;;5032520;28;20024;-77
2023/01/06 16:20:49;;;;;;;12.05;7.35;;;20.00;57.80;;;;;;5030881;28;20075;-77
2023/01/06 16:23:35;;;;;;;14.13;7.88;;;19.90;57.60;;;;;;5031117;28;20029;-76
2023/01/06 16:26:09;;;;;;;17.70;7.32;;;19.90;57.70;;;;;;5030595;28;20060;-77
2023/01/06 16:28:40;;;;;;;14.90;8.32;;;19.90;57.60;;;;;;5031355;28;20231;-77
2023/01/06 16:31:11;;;;;;;16.95;8.05;;;19.90;57.80;;;;;;5031962;28;20389;-77
2023/01/06 16:33:40;;;;;;;18.70;7.78;;;19.90;57.80;;;;;;5024531;28;20025;-76
2023/01/06 16:36:11;;;;;;;15.55;8.00;;;19.90;58.10;;;;;;5027212;28;20386;-76
2023/01/06 16:38:38;;;;;;;15.73;8.30;;;19.90;57.80;;;;;;5029923;28;20030;-76
2023/01/06 16:41:04;;;;;;;29.48;17.50;;;19.90;58.00;;;;;;5030363;28;20397;-77
2023/01/06 16:43:30;;;;;;;59.50;43.22;;;19.90;58.00;;;;;;5031666;28;20030;-76
2023/01/06 16:46:01;;;;;;;63.50;45.47;;;19.80;56.60;;;;;;5030886;28;20560;-76
2023/01/06 16:48:27;;;;;;;68.47;45.70;;;19.70;56.10;;;;;;5031731;28;20516;-76
2023/01/06 16:50:55;;;;;;;73.00;51.30;;;19.70;56.30;;;;;;5030328;28;20030;-76
2023/01/06 16:53:22;;;;;;;60.67;39.70;;;19.80;57.30;;;;;;5031689;28;20112;-76
2023/01/06 16:55:58;;;;;;;58.28;39.70;;;19.80;56.90;;;;;;5013578;28;20033;-76
2023/01/06 16:58:28;;;;;;;55.83;38.70;;;19.80;57.20;;;;;;5030135;28;20032;-76
2023/01/06 17:00:57;;;;;;;57.72;42.90;;;19.90;56.90;;;;;;5031368;28;20037;-76
2023/01/06 17:03:25;;;;;;;55.90;40.20;;;19.90;57.60;;;;;;5031421;28;20036;-75
2023/01/06 17:05:52;;;;;;;64.78;40.35;;;19.90;57.70;;;;;;5029931;28;20315;-76
2023/01/06 17:08:26;;;;;;;56.45;39.50;;;20.00;57.80;;;;;;5030278;28;20148;-78
2023/01/06 17:10:52;;;;;;;62.45;38.47;;;20.00;57.70;;;;;;5030158;28;20087;-76
2023/01/06 17:13:38;;;;;;;59.85;40.58;;;20.00;57.80;;;;;;4997257;28;20042;-76
2023/01/06 17:16:12;;;;;;;63.33;38.58;;;20.00;57.70;;;;;;5030174;28;20120;-78
2023/01/06 17:18:55;;;;;;;57.55;39.15;;;20.00;57.70;;;;;;5029805;28;20048;-78
2023/01/06 17:21:36;;;;;;;37.85;20.98;;;20.00;58.40;;;;;;5030512;28;20732;-79
2023/01/06 17:24:05;;;;;;;36.75;27.23;;;19.90;56.70;;;;;;5031012;28;20510;-78
2023/01/06 17:26:31;;;;;;;36.65;24.55;;;19.80;56.20;;;;;;5031543;28;20052;-77
2023/01/06 17:28:59;;;;;;;32.70;21.98;;;19.70;55.90;;;;;;5033583;28;20030;-73
2023/01/06 17:31:33;;;;;;;32.47;20.63;;;19.70;55.80;;;;;;5033040;28;20025;-73
2023/01/06 17:34:14;;;;;;;45.08;21.00;;;19.70;55.40;;;;;;5032558;28;20034;-76
2023/01/06 17:36:43;;;;;;;34.78;19.70;;;19.80;56.60;;;;;;5033265;28;20100;-74
2023/01/06 17:39:20;;;;;;;37.25;15.68;;;19.70;56.40;;;;;;5033459;28;20057;-75
2023/01/06 17:41:46;;;;;;;20.10;12.73;;;19.70;55.80;;;;;;5032815;28;20362;-74
2023/01/06 17:44:17;;;;;;;26.23;14.50;;;19.60;55.10;;;;;;5033358;28;20032;-75
2023/01/06 17:46:44;;;;;;;24.20;14.25;;;19.70;56.60;;;;;;5032869;28;20036;-77
2023/01/06 17:49:19;;;;;;;22.90;13.93;;;19.80;56.80;;;;;;5033248;28;20033;-75
2023/01/06 17:51:45;;;;;;;23.10;12.57;;;19.80;57.20;;;;;;5032644;28;20030;-75
2023/01/06 17:57:10;;;;;;;;;;;19.90;57.50;;;;;;5015609;28;20464;-75
2023/01/06 17:59:41;;;;;;;26.20;13.63;;;19.90;58.50;;;;;;5031697;28;19905;-74
2023/01/06 18:02:31;;;;;;;38.30;13.70;;;19.90;57.70;;;;;;5031672;28;20056;-74
2023/01/06 18:05:09;;;;;;;27.85;13.35;;;19.90;57.20;;;;;;5031574;28;20029;-74
2023/01/06 18:07:35;;;;;;;25.27;13.95;;;19.90;57.30;;;;;;5032396;28;20488;-72
2023/01/06 18:10:01;;;;;;;21.52;10.60;;;19.90;58.20;;;;;;5032523;28;20029;-73
2023/01/06 18:12:27;;;;;;;14.35;7.65;;;19.80;56.40;;;;;;5031504;28;20491;-78
2023/01/06 18:14:54;;;;;;;12.30;6.03;;;19.70;55.30;;;;;;5031275;28;20065;-72
2023/01/06 18:17:24;;;;;;;13.13;7.32;;;19.50;55.00;;;;;;5029667;28;20493;-76
2023/01/06 18:19:50;;;;;;;;;;;19.50;55.50;;;;;;5030352;28;20486;-77
2023/01/06 18:22:20;;;;;;;21.42;9.48;;;19.50;55.00;;;;;;5031683;28;20261;-75
2023/01/06 18:24:48;;;;;;;20.13;8.50;;;19.60;55.20;;;;;;5030950;28;20056;-74
2023/01/06 18:27:26;;;;;;;22.08;9.13;;;19.60;56.10;;;;;;5032229;28;20033;-74
2023/01/06 18:29:54;;;;;;;21.40;8.45;;;19.70;56.30;;;;;;5030855;28;20033;-74
2023/01/06 18:32:20;;;;;;;25.45;9.25;;;19.80;56.70;;;;;;5031239;28;20060;-75
2023/01/06 18:34:53;;;;;;;18.40;9.80;;;19.90;56.90;;;;;;5031918;28;20068;-75
2023/01/06 18:37:31;;;;;;;18.38;8.50;;;19.90;56.40;;;;;;5030885;28;20033;-75
2023/01/06 18:40:03;;;;;;;19.77;8.48;;;19.80;56.70;;;;;;5012559;28;20036;-75
2023/01/06 18:42:35;;;;;;;17.58;8.32;;;19.80;56.60;;;;;;5032355;28;20035;-76
2023/01/06 18:45:01;;;;;;;16.98;8.23;;;19.90;56.60;;;;;;5013349;28;20033;-75
2023/01/06 18:47:30;;;;;;;16.05;8.20;;;19.90;57.00;;;;;;5030715;28;20091;-73
2023/01/06 18:50:36;;;;;;;16.23;7.18;;;19.90;57.00;;;;;;5029911;28;20083;-73
2023/01/06 18:53:14;;;;;;;18.92;8.50;;;19.80;56.50;;;;;;5029873;28;20115;-74
2023/01/06 18:55:45;;;;;;;17.98;8.73;;;19.90;56.80;;;;;;5029409;28;20029;-74
2023/01/06 18:58:24;;;;;;;16.88;7.95;;;19.80;57.10;;;;;;5013779;28;20397;-74
2023/01/06 19:00:56;;;;;;;17.55;8.57;;;19.90;57.00;;;;;;5032058;28;20021;-74
2023/01/06 19:03:46;;;;;;;18.08;8.73;;;19.80;57.20;;;;;;5031647;28;20040;-74
